sensor_id;sensor_type;location;lat;lon;timestamp;pressure;altitude;pressure_sealevel;temperature;humidity
9059;BME280;4564;42.034;25.834;2023-06-04T00:02:13;100311.56;;;18.71;90.27
9059;BME280;4564;42.034;25.834;2023-06-04T00:04:40;100311.06;;;18.74;92.70
9059;BME280;4564;42.034;25.834;2023-06-04T00:07:07;100310.47;;;18.72;93.86
9059;BME280;4564;42.034;25.834;2023-06-04T00:09:35;100306.06;;;18.71;96.33
9059;BME280;4564;42.034;25.834;2023-06-04T00:12:01;100308.69;;;18.66;98.28
9059;BME280;4564;42.034;25.834;2023-06-04T00:14:28;100310.84;;;18.64;98.90
9059;BME280;4564;42.034;25.834;2023-06-04T00:16:55;100303.81;;;18.57;98.52
9059;BME280;4564;42.034;25.834;2023-06-04T00:19:21;100307.22;;;18.52;98.69
9059;BME280;4564;42.034;25.834;2023-06-04T00:21:48;100306.03;;;18.48;99.36
9059;BME280;4564;42.034;25.834;2023-06-04T00:24:15;100299.94;;;18.34;100.00
9059;BME280;4564;42.034;25.834;2023-06-04T00:26:43;100298.84;;;18.24;100.00
9059;BME280;4564;42.034;25.834;2023-06-04T00:29:10;100297.75;;;18.25;100.00
9059;BME280;4564;42.034;25.834;2023-06-04T00:31:36;100298.72;;;18.19;100.00
9059;BME280;4564;42.034;25.834;2023-06-04T00:34:03;100302.66;;;18.23;100.00
9059;BME280;4564;42.034;25.834;2023-06-04T00:36:30;100311.25;;;18.26;100.00
9059;BME280;4564;42.034;25.834;2023-06-04T00:38:56;100306.59;;;18.27;100.00
9059;BME280;4564;42.034;25.834;2023-06-04T00:41:23;100304.81;;;18.21;100.00
9059;BME280;4564;42.034;25.834;2023-06-04T00:43:51;100305.03;;;18.19;100.00
9059;BME280;4564;42.034;25.834;2023-06-04T00:46:22;100295.50;;;18.22;100.00
9059;BME280;4564;42.034;25.834;2023-06-04T00:48:50;100286.19;;;18.23;100.00
9059;BME280;4564;42.034;25.834;2023-06-04T00:51:17;100294.31;;;18.29;100.00
9059;BME280;4564;42.034;25.834;2023-06-04T00:53:44;100296.56;;;18.32;100.00
9059;BME280;4564;42.034;25.834;2023-06-04T00:56:11;100291.81;;;18.28;100.00
9059;BME280;4564;42.034;25.834;2023-06-04T00:58:38;100295.84;;;18.25;100.00
9059;BME280;4564;42.034;25.834;2023-06-04T01:01:07;100299.31;;;18.21;100.00
9059;BME280;4564;42.034;25.834;2023-06-04T01:03:37;100295.97;;;18.19;100.00
9059;BME280;4564;42.034;25.834;2023-06-04T01:06:07;100297.63;;;18.20;100.00
9059;BME280;4564;42.034;25.834;2023-06-04T01:08:35;100298.84;;;18.24;100.00
9059;BME280;4564;42.034;25.834;2023-06-04T01:11:03;100299.31;;;18.21;100.00
9059;BME280;4564;42.034;25.834;2023-06-04T01:13:29;100301.69;;;18.17;100.00
9059;BME280;4564;42.034;25.834;2023-06-04T01:15:56;100299.31;;;18.21;100.00
9059;BME280;4564;42.034;25.834;2023-06-04T01:18:27;100304.91;;;18.14;100.00
9059;BME280;4564;42.034;25.834;2023-06-04T01:20:54;100308.50;;;18.15;100.00
9059;BME280;4564;42.034;25.834;2023-06-04T01:23:25;100308.22;;;18.04;100.00
9059;BME280;4564;42.034;25.834;2023-06-04T01:25:58;100303.59;;;18.05;100.00
9059;BME280;4564;42.034;25.834;2023-06-04T01:28:27;100310.03;;;18.11;100.00
9059;BME280;4564;42.034;25.834;2023-06-04T01:30:54;100304.31;;;18.12;100.00
9059;BME280;4564;42.034;25.834;2023-06-04T01:33:22;100310.88;;;18.11;100.00
9059;BME280;4564;42.034;25.834;2023-06-04T01:35:50;100318.91;;;18.13;100.00
9059;BME280;4564;42.034;25.834;2023-06-04T01:38:17;100314.69;;;18.10;100.00
9059;BME280;4564;42.034;25.834;2023-06-04T01:40:43;100317.66;;;18.09;100.00
9059;BME280;4564;42.034;25.834;2023-06-04T01:43:10;100320.41;;;18.09;100.00
9059;BME280;4564;42.034;25.834;2023-06-04T01:45:36;100321.97;;;18.04;100.00
9059;BME280;4564;42.034;25.834;2023-06-04T01:48:04;100315.41;;;18.06;100.00
9059;BME280;4564;42.034;25.834;2023-06-04T01:50:31;100315.53;;;18.11;100.00
9059;BME280;4564;42.034;25.834;2023-06-04T01:52:59;100323.31;;;18.14;100.00
9059;BME280;4564;42.034;25.834;2023-06-04T01:55:25;100319.13;;;18.11;100.00
9059;BME280;4564;42.034;25.834;2023-06-04T01:57:53;100323.56;;;18.12;100.00
9059;BME280;4564;42.034;25.834;2023-06-04T02:00:19;100323.56;;;18.12;100.00
9059;BME280;4564;42.034;25.834;2023-06-04T02:02:46;100331.66;;;18.07;100.00
9059;BME280;4564;42.034;25.834;2023-06-04T02:05:14;100335.13;;;18.14;100.00
9059;BME280;4564;42.034;25.834;2023-06-04T02:07:41;100331.66;;;18.07;100.00
9059;BME280;4564;42.034;25.834;2023-06-04T02:10:11;100338.84;;;18.08;100.00
9059;BME280;4564;42.034;25.834;2023-06-04T02:12:39;100341.31;;;18.10;100.00
9059;BME280;4564;42.034;25.834;2023-06-04T02:15:06;100350.03;;;18.07;100.00
9059;BME280;4564;42.034;25.834;2023-06-04T02:17:33;100351.34;;;18.04;100.00
9059;BME280;4564;42.034;25.834;2023-06-04T02:20:02;100349.22;;;18.06;100.00
9059;BME280;4564;42.034;25.834;2023-06-04T02:22:31;100361.63;;;18.09;100.00
9059;BME280;4564;42.034;25.834;2023-06-04T02:24:57;100358.28;;;18.07;100.00
9059;BME280;4564;42.034;25.834;2023-06-04T02:27:25;100356.75;;;18.11;100.00
9059;BME280;4564;42.034;25.834;2023-06-04T02:29:53;100352.78;;;18.07;100.00
9059;BME280;4564;42.034;25.834;2023-06-04T02:32:19;100358.28;;;18.07;100.00
9059;BME280;4564;42.034;25.834;2023-06-04T02:34:46;100358.28;;;18.07;100.00
9059;BME280;4564;42.034;25.834;2023-06-04T02:37:14;100358.41;;;18.12;100.00
9059;BME280;4564;42.034;25.834;2023-06-04T02:39:41;100365.81;;;18.11;100.00
9059;BME280;4564;42.034;25.834;2023-06-04T02:42:08;100365.47;;;18.08;100.00
9059;BME280;4564;42.034;25.834;2023-06-04T02:44:36;100373.22;;;18.11;100.00
9059;BME280;4564;42.034;25.834;2023-06-04T02:47:02;100369.28;;;18.07;100.00
9059;BME280;4564;42.034;25.834;2023-06-04T02:49:30;100374.78;;;18.07;100.00
9059;BME280;4564;42.034;25.834;2023-06-04T02:51:57;100374.06;;;18.11;100.00
9059;BME280;4564;42.034;25.834;2023-06-04T02:54:23;100376.81;;;18.11;100.00
9059;BME280;4564;42.034;25.834;2023-06-04T02:56:50;100379.69;;;18.16;100.00
9059;BME280;4564;42.034;25.834;2023-06-04T02:59:17;100377.66;;;18.12;100.00
9059;BME280;4564;42.034;25.834;2023-06-04T03:01:45;100386.13;;;18.10;100.00
9059;BME280;4564;42.034;25.834;2023-06-04T03:04:12;100380.25;;;18.07;100.00
9059;BME280;4564;42.034;25.834;2023-06-04T03:06:40;100387.03;;;18.04;100.00
9059;BME280;4564;42.034;25.834;2023-06-04T03:09:10;100388.28;;;18.08;100.00
9059;BME280;4564;42.034;25.834;2023-06-04T03:11:37;100397.00;;;17.87;100.00
9059;BME280;4564;42.034;25.834;2023-06-04T03:14:04;100395.16;;;17.69;100.00
9059;BME280;4564;42.034;25.834;2023-06-04T03:16:30;100395.22;;;17.63;100.00
9059;BME280;4564;42.034;25.834;2023-06-04T03:18:59;100397.34;;;17.60;100.00
9059;BME280;4564;42.034;25.834;2023-06-04T03:21:26;100401.38;;;17.58;100.00
9059;BME280;4564;42.034;25.834;2023-06-04T03:23:54;100406.22;;;17.63;100.00
9059;BME280;4564;42.034;25.834;2023-06-04T03:26:20;100411.63;;;17.69;100.00
9059;BME280;4564;42.034;25.834;2023-06-04T03:28:47;100403.91;;;17.78;100.00
9059;BME280;4564;42.034;25.834;2023-06-04T03:31:14;100407.63;;;17.83;100.00
9059;BME280;4564;42.034;25.834;2023-06-04T03:33:40;100403.94;;;17.89;100.00
9059;BME280;4564;42.034;25.834;2023-06-04T03:36:08;100405.41;;;17.92;100.00
9059;BME280;4564;42.034;25.834;2023-06-04T03:38:35;100412.94;;;17.96;100.00
9059;BME280;4564;42.034;25.834;2023-06-04T03:41:01;100415.81;;;18.01;100.00
9059;BME280;4564;42.034;25.834;2023-06-04T03:43:28;100414.66;;;18.09;100.00
9059;BME280;4564;42.034;25.834;2023-06-04T03:45:54;100417.31;;;18.16;100.00
9059;BME280;4564;42.034;25.834;2023-06-04T03:48:21;100426.16;;;18.18;100.00
9059;BME280;4564;42.034;25.834;2023-06-04T03:50:48;100425.69;;;18.21;100.00
9059;BME280;4564;42.034;25.834;2023-06-04T03:53:16;100423.53;;;18.23;100.00
9059;BME280;4564;42.034;25.834;2023-06-04T03:55:42;100422.63;;;18.29;100.00
9059;BME280;4564;42.034;25.834;2023-06-04T03:58:09;100430.41;;;18.43;100.00
9059;BME280;4564;42.034;25.834;2023-06-04T04:00:36;100423.63;;;18.46;100.00
9059;BME280;4564;42.034;25.834;2023-06-04T04:03:03;100423.13;;;18.49;100.00
9059;BME280;4564;42.034;25.834;2023-06-04T04:05:29;100427.25;;;18.58;100.00
9059;BME280;4564;42.034;25.834;2023-06-04T04:07:56;100421.22;;;18.50;100.00
9059;BME280;4564;42.034;25.834;2023-06-04T04:10:23;100420.25;;;18.44;100.00
9059;BME280;4564;42.034;25.834;2023-06-04T04:12:50;100429.69;;;18.48;100.00
9059;BME280;4564;42.034;25.834;2023-06-04T04:15:20;100421.81;;;18.52;100.00
9059;BME280;4564;42.034;25.834;2023-06-04T04:17:46;100426.88;;;18.55;100.00
9059;BME280;4564;42.034;25.834;2023-06-04T04:20:13;100431.22;;;18.62;100.00
9059;BME280;4564;42.034;25.834;2023-06-04T04:22:41;100427.16;;;18.76;100.00
9059;BME280;4564;42.034;25.834;2023-06-04T04:25:08;100422.97;;;18.85;100.00
9059;BME280;4564;42.034;25.834;2023-06-04T04:27:36;100433.25;;;18.67;100.00
9059;BME280;4564;42.034;25.834;2023-06-04T04:30:06;100436.59;;;18.80;100.00
9059;BME280;4564;42.034;25.834;2023-06-04T04:32:33;100431.44;;;18.84;100.00
9059;BME280;4564;42.034;25.834;2023-06-04T04:34:59;100436.84;;;18.91;100.00
9059;BME280;4564;42.034;25.834;2023-06-04T04:37:26;100439.38;;;18.92;100.00
9059;BME280;4564;42.034;25.834;2023-06-04T04:39:52;100442.34;;;19.02;100.00
9059;BME280;4564;42.034;25.834;2023-06-04T04:42:19;100440.22;;;19.16;100.00
9059;BME280;4564;42.034;25.834;2023-06-04T04:44:47;100447.47;;;19.22;100.00
9059;BME280;4564;42.034;25.834;2023-06-04T04:47:14;100445.78;;;19.33;100.00
9059;BME280;4564;42.034;25.834;2023-06-04T04:49:41;100451.69;;;19.36;100.00
9059;BME280;4564;42.034;25.834;2023-06-04T04:52:07;100455.00;;;19.38;100.00
9059;BME280;4564;42.034;25.834;2023-06-04T04:54:34;100450.84;;;19.47;100.00
9059;BME280;4564;42.034;25.834;2023-06-04T04:57:00;100461.75;;;19.54;100.00
9059;BME280;4564;42.034;25.834;2023-06-04T04:59:27;100453.44;;;19.65;100.00
9059;BME280;4564;42.034;25.834;2023-06-04T05:01:55;100461.81;;;19.70;99.82
9059;BME280;4564;42.034;25.834;2023-06-04T05:04:22;100459.56;;;19.67;99.93
9059;BME280;4564;42.034;25.834;2023-06-04T05:06:48;100470.06;;;19.70;100.00
9059;BME280;4564;42.034;25.834;2023-06-04T05:09:15;100467.91;;;19.73;99.67
9059;BME280;4564;42.034;25.834;2023-06-04T05:11:42;100468.25;;;19.76;100.00
9059;BME280;4564;42.034;25.834;2023-06-04T05:14:08;100475.31;;;19.84;100.00
9059;BME280;4564;42.034;25.834;2023-06-04T05:16:36;100481.53;;;19.91;100.00
9059;BME280;4564;42.034;25.834;2023-06-04T05:19:04;100483.69;;;19.89;100.00
9059;BME280;4564;42.034;25.834;2023-06-04T05:21:31;100485.84;;;19.87;100.00
9059;BME280;4564;42.034;25.834;2023-06-04T05:23:57;100487.41;;;19.83;100.00
9059;BME280;4564;42.034;25.834;2023-06-04T05:26:24;100495.25;;;19.62;100.00
9059;BME280;4564;42.034;25.834;2023-06-04T05:28:52;100505.53;;;19.32;100.00
9059;BME280;4564;42.034;25.834;2023-06-04T05:31:19;100491.41;;;19.40;100.00
9059;BME280;4564;42.034;25.834;2023-06-04T05:33:46;100496.69;;;19.53;100.00
9059;BME280;4564;42.034;25.834;2023-06-04T05:36:14;100497.16;;;19.62;100.00
9059;BME280;4564;42.034;25.834;2023-06-04T05:38:41;100497.50;;;19.65;100.00
9059;BME280;4564;42.034;25.834;2023-06-04T05:41:07;100507.81;;;19.70;100.00
9059;BME280;4564;42.034;25.834;2023-06-04T05:43:34;100507.31;;;19.73;100.00
9059;BME280;4564;42.034;25.834;2023-06-04T05:46:00;100512.31;;;19.76;100.00
9059;BME280;4564;42.034;25.834;2023-06-04T05:48:27;100509.00;;;19.74;100.00
9059;BME280;4564;42.034;25.834;2023-06-04T05:50:53;100514.41;;;19.57;100.00
9059;BME280;4564;42.034;25.834;2023-06-04T05:53:22;100516.53;;;19.32;100.00
9059;BME280;4564;42.034;25.834;2023-06-04T05:55:48;100530.94;;;19.46;100.00
9059;BME280;4564;42.034;25.834;2023-06-04T05:58:15;100523.84;;;19.61;100.00
9059;BME280;4564;42.034;25.834;2023-06-04T06:00:41;100523.34;;;19.76;100.00
9059;BME280;4564;42.034;25.834;2023-06-04T06:03:09;100535.06;;;19.95;100.00
9059;BME280;4564;42.034;25.834;2023-06-04T06:05:35;100535.16;;;20.00;100.00
9059;BME280;4564;42.034;25.834;2023-06-04T06:08:02;100543.31;;;19.95;100.00
9059;BME280;4564;42.034;25.834;2023-06-04T06:10:30;100539.84;;;19.99;100.00
9059;BME280;4564;42.034;25.834;2023-06-04T06:12:56;100551.44;;;20.13;100.00
9059;BME280;4564;42.034;25.834;2023-06-04T06:15:23;100548.22;;;20.04;100.00
9059;BME280;4564;42.034;25.834;2023-06-04T06:17:49;100545.59;;;19.98;100.00
9059;BME280;4564;42.034;25.834;2023-06-04T06:20:17;100551.69;;;20.11;100.00
9059;BME280;4564;42.034;25.834;2023-06-04T06:22:44;100556.31;;;20.34;100.00
9059;BME280;4564;42.034;25.834;2023-06-04T06:25:10;100557.16;;;20.63;100.00
9059;BME280;4564;42.034;25.834;2023-06-04T06:27:39;100561.78;;;20.74;100.00
9059;BME280;4564;42.034;25.834;2023-06-04T06:30:07;100568.50;;;20.95;100.00
9059;BME280;4564;42.034;25.834;2023-06-04T06:32:34;100565.38;;;21.20;99.05
9059;BME280;4564;42.034;25.834;2023-06-04T06:35:00;100568.63;;;21.33;98.30
9059;BME280;4564;42.034;25.834;2023-06-04T06:37:28;100568.88;;;21.49;96.46
9059;BME280;4564;42.034;25.834;2023-06-04T06:39:55;100574.66;;;21.64;93.73
9059;BME280;4564;42.034;25.834;2023-06-04T06:42:22;100577.66;;;21.79;92.13
9059;BME280;4564;42.034;25.834;2023-06-04T06:44:50;100576.50;;;21.75;91.63
9059;BME280;4564;42.034;25.834;2023-06-04T06:47:17;100575.63;;;21.91;91.66
9059;BME280;4564;42.034;25.834;2023-06-04T06:49:43;100579.56;;;21.95;90.24
9059;BME280;4564;42.034;25.834;2023-06-04T06:52:10;100584.84;;;21.97;90.05
9059;BME280;4564;42.034;25.834;2023-06-04T06:54:36;100582.81;;;21.92;89.69
9059;BME280;4564;42.034;25.834;2023-06-04T06:57:03;100582.47;;;22.05;88.67
9059;BME280;4564;42.034;25.834;2023-06-04T06:59:34;100585.41;;;21.99;89.33
9059;BME280;4564;42.034;25.834;2023-06-04T07:02:03;100587.47;;;22.08;89.34
9059;BME280;4564;42.034;25.834;2023-06-04T07:04:29;100589.81;;;22.16;89.53
9059;BME280;4564;42.034;25.834;2023-06-04T07:06:56;100589.69;;;22.28;89.38
9059;BME280;4564;42.034;25.834;2023-06-04T07:09:22;100602.22;;;22.57;89.43
9059;BME280;4564;42.034;25.834;2023-06-04T07:11:49;100596.28;;;22.92;87.53
9059;BME280;4564;42.034;25.834;2023-06-04T07:14:15;100607.34;;;22.92;86.43
9059;BME280;4564;42.034;25.834;2023-06-04T07:16:42;100603.00;;;22.75;85.64
9059;BME280;4564;42.034;25.834;2023-06-04T07:19:10;100602.16;;;22.74;85.58
9059;BME280;4564;42.034;25.834;2023-06-04T07:21:36;100608.59;;;22.80;85.47
9059;BME280;4564;42.034;25.834;2023-06-04T07:24:03;100606.16;;;22.83;85.45
9059;BME280;4564;42.034;25.834;2023-06-04T07:26:31;100617.41;;;22.55;88.50
9059;BME280;4564;42.034;25.834;2023-06-04T07:28:58;100615.03;;;22.42;90.19
9059;BME280;4564;42.034;25.834;2023-06-04T07:31:24;100611.75;;;22.23;90.25
9059;BME280;4564;42.034;25.834;2023-06-04T07:33:51;100619.56;;;21.93;90.93
9059;BME280;4564;42.034;25.834;2023-06-04T07:36:19;100616.66;;;21.66;92.84
9059;BME280;4564;42.034;25.834;2023-06-04T07:38:46;100620.34;;;21.38;95.29
9059;BME280;4564;42.034;25.834;2023-06-04T07:41:12;100618.84;;;21.30;96.26
9059;BME280;4564;42.034;25.834;2023-06-04T07:43:39;100628.03;;;21.19;96.62
9059;BME280;4564;42.034;25.834;2023-06-04T07:46:05;100623.53;;;21.30;96.14
9059;BME280;4564;42.034;25.834;2023-06-04T07:48:32;100623.53;;;21.30;95.86
9059;BME280;4564;42.034;25.834;2023-06-04T07:50:59;100633.69;;;21.41;94.95
9059;BME280;4564;42.034;25.834;2023-06-04T07:53:27;100635.91;;;21.44;94.81
9059;BME280;4564;42.034;25.834;2023-06-04T07:55:54;100635.53;;;21.52;95.27
9059;BME280;4564;42.034;25.834;2023-06-04T07:58:21;100637.78;;;21.72;94.76
9059;BME280;4564;42.034;25.834;2023-06-04T08:00:47;100632.75;;;21.86;93.97
9059;BME280;4564;42.034;25.834;2023-06-04T08:03:14;100636.41;;;22.08;93.11
9059;BME280;4564;42.034;25.834;2023-06-04T08:05:41;100636.81;;;22.16;91.57
9059;BME280;4564;42.034;25.834;2023-06-04T08:08:08;100633.38;;;22.09;91.61
9059;BME280;4564;42.034;25.834;2023-06-04T08:10:36;100640.28;;;22.07;92.33
9059;BME280;4564;42.034;25.834;2023-06-04T08:13:02;100652.50;;;22.11;92.87
9059;BME280;4564;42.034;25.834;2023-06-04T08:15:29;100649.13;;;21.92;94.38
9059;BME280;4564;42.034;25.834;2023-06-04T08:17:56;100648.41;;;21.80;95.85
9059;BME280;4564;42.034;25.834;2023-06-04T08:20:22;100648.34;;;21.75;97.47
9059;BME280;4564;42.034;25.834;2023-06-04T08:22:50;100643.44;;;21.82;98.10
9059;BME280;4564;42.034;25.834;2023-06-04T08:25:17;100648.28;;;21.92;98.31
9059;BME280;4564;42.034;25.834;2023-06-04T08:27:45;100653.38;;;21.95;97.41
9059;BME280;4564;42.034;25.834;2023-06-04T08:30:12;100649.13;;;21.92;96.96
9059;BME280;4564;42.034;25.834;2023-06-04T08:32:38;100652.50;;;22.11;96.80
9059;BME280;4564;42.034;25.834;2023-06-04T08:35:06;100654.22;;;22.34;98.46
9059;BME280;4564;42.034;25.834;2023-06-04T08:37:33;100652.84;;;22.58;97.04
9059;BME280;4564;42.034;25.834;2023-06-04T08:39:59;100654.34;;;22.87;94.79
9059;BME280;4564;42.034;25.834;2023-06-04T08:42:27;100658.38;;;23.01;92.69
9059;BME280;4564;42.034;25.834;2023-06-04T08:44:57;100657.09;;;23.36;91.06
9059;BME280;4564;42.034;25.834;2023-06-04T08:47:25;100655.34;;;23.57;90.38
9059;BME280;4564;42.034;25.834;2023-06-04T08:49:52;100661.97;;;23.88;88.19
9059;BME280;4564;42.034;25.834;2023-06-04T08:52:20;100655.59;;;23.87;87.73
9059;BME280;4564;42.034;25.834;2023-06-04T08:54:48;100657.69;;;24.07;86.31
9059;BME280;4564;42.034;25.834;2023-06-04T08:57:15;100660.88;;;24.25;88.68
9059;BME280;4564;42.034;25.834;2023-06-04T08:59:43;100660.19;;;24.50;85.57
9059;BME280;4564;42.034;25.834;2023-06-04T09:02:12;100657.78;;;24.79;82.65
9059;BME280;4564;42.034;25.834;2023-06-04T09:04:39;100657.34;;;24.97;80.23
9059;BME280;4564;42.034;25.834;2023-06-04T09:07:06;100659.56;;;25.11;79.63
9059;BME280;4564;42.034;25.834;2023-06-04T09:09:37;100654.84;;;25.01;78.74
9059;BME280;4564;42.034;25.834;2023-06-04T09:12:04;100656.78;;;25.05;81.47
9059;BME280;4564;42.034;25.834;2023-06-04T09:14:31;100656.56;;;25.22;78.75
9059;BME280;4564;42.034;25.834;2023-06-04T09:16:58;100663.88;;;25.64;77.12
9059;BME280;4564;42.034;25.834;2023-06-04T09:19:26;100672.19;;;25.89;76.62
9059;BME280;4564;42.034;25.834;2023-06-04T09:21:53;100664.34;;;26.21;76.99
9059;BME280;4564;42.034;25.834;2023-06-04T09:24:21;100671.00;;;26.46;74.96
9059;BME280;4564;42.034;25.834;2023-06-04T09:26:48;100672.72;;;26.26;76.79
9059;BME280;4564;42.034;25.834;2023-06-04T09:29:15;100665.41;;;26.46;74.36
9059;BME280;4564;42.034;25.834;2023-06-04T09:31:44;100658.78;;;26.31;71.71
9059;BME280;4564;42.034;25.834;2023-06-04T09:34:12;100658.84;;;25.76;74.76
9059;BME280;4564;42.034;25.834;2023-06-04T09:36:39;100664.47;;;24.83;78.03
9059;BME280;4564;42.034;25.834;2023-06-04T09:39:14;100672.94;;;24.09;80.75
9059;BME280;4564;42.034;25.834;2023-06-04T09:41:41;100672.47;;;23.80;82.01
9059;BME280;4564;42.034;25.834;2023-06-04T09:44:07;100675.59;;;23.04;85.57
9059;BME280;4564;42.034;25.834;2023-06-04T09:46:36;100680.03;;;22.61;90.89
9059;BME280;4564;42.034;25.834;2023-06-04T09:49:03;100680.97;;;22.11;93.52
9059;BME280;4564;42.034;25.834;2023-06-04T09:51:30;100683.50;;;21.80;96.76
9059;BME280;4564;42.034;25.834;2023-06-04T09:53:59;100677.84;;;21.41;97.29
9059;BME280;4564;42.034;25.834;2023-06-04T09:56:26;100679.34;;;21.04;100.00
9059;BME280;4564;42.034;25.834;2023-06-04T09:58:57;100682.13;;;20.92;100.00
9059;BME280;4564;42.034;25.834;2023-06-04T10:01:26;100674.00;;;20.85;100.00
9059;BME280;4564;42.034;25.834;2023-06-04T10:03:53;100679.28;;;20.87;100.00
9059;BME280;4564;42.034;25.834;2023-06-04T10:06:20;100675.53;;;20.93;100.00
9059;BME280;4564;42.034;25.834;2023-06-04T10:08:48;100669.72;;;21.06;100.00
9059;BME280;4564;42.034;25.834;2023-06-04T10:11:17;100667.88;;;21.23;100.00
9059;BME280;4564;42.034;25.834;2023-06-04T10:13:45;100666.97;;;21.34;100.00
9059;BME280;4564;42.034;25.834;2023-06-04T10:16:14;100667.59;;;21.53;100.00
9059;BME280;4564;42.034;25.834;2023-06-04T10:18:41;100661.72;;;21.66;100.00
9059;BME280;4564;42.034;25.834;2023-06-04T10:21:08;100670.59;;;21.85;100.00
9059;BME280;4564;42.034;25.834;2023-06-04T10:23:35;100668.41;;;22.04;100.00
9059;BME280;4564;42.034;25.834;2023-06-04T10:26:02;100670.25;;;22.15;98.51
9059;BME280;4564;42.034;25.834;2023-06-04T10:28:30;100677.78;;;22.19;97.61
9059;BME280;4564;42.034;25.834;2023-06-04T10:30:58;100674.59;;;22.28;97.75
9059;BME280;4564;42.034;25.834;2023-06-04T10:33:25;100671.16;;;22.21;98.83
9059;BME280;4564;42.034;25.834;2023-06-04T10:35:53;100673.88;;;21.99;99.47
9059;BME280;4564;42.034;25.834;2023-06-04T10:38:20;100674.63;;;21.94;100.00
9059;BME280;4564;42.034;25.834;2023-06-04T10:40:47;100669.00;;;21.89;100.00
9059;BME280;4564;42.034;25.834;2023-06-04T10:43:14;100675.13;;;21.74;100.00
9059;BME280;4564;42.034;25.834;2023-06-04T10:45:44;100668.75;;;21.74;100.00
9059;BME280;4564;42.034;25.834;2023-06-04T10:48:12;100668.25;;;21.77;100.00
9059;BME280;4564;42.034;25.834;2023-06-04T10:50:47;100667.41;;;21.76;100.00
9059;BME280;4564;42.034;25.834;2023-06-04T10:53:14;100662.56;;;21.67;100.00
9059;BME280;4564;42.034;25.834;2023-06-04T10:55:43;100669.41;;;21.48;100.00
9059;BME280;4564;42.034;25.834;2023-06-04T10:58:10;100666.22;;;21.39;100.00
9059;BME280;4564;42.034;25.834;2023-06-04T11:00:37;100672.22;;;21.19;100.00
9059;BME280;4564;42.034;25.834;2023-06-04T11:03:06;100668.94;;;21.22;100.00
9059;BME280;4564;42.034;25.834;2023-06-04T11:05:33;100670.06;;;21.21;100.00
9059;BME280;4564;42.034;25.834;2023-06-04T11:08:00;100671.16;;;21.09;100.00
9059;BME280;4564;42.034;25.834;2023-06-04T11:10:30;100661.59;;;21.00;100.00
9059;BME280;4564;42.034;25.834;2023-06-04T11:12:58;100654.75;;;21.02;100.00
9059;BME280;4564;42.034;25.834;2023-06-04T11:15:24;100646.66;;;21.12;100.00
9059;BME280;4564;42.034;25.834;2023-06-04T11:17:51;100652.28;;;21.17;100.00
9059;BME280;4564;42.034;25.834;2023-06-04T11:20:20;100657.16;;;21.27;100.00
9059;BME280;4564;42.034;25.834;2023-06-04T11:22:51;100652.84;;;21.31;100.00
9059;BME280;4564;42.034;25.834;2023-06-04T11:25:18;100647.56;;;21.29;100.00
9059;BME280;4564;42.034;25.834;2023-06-04T11:27:45;100640.34;;;21.28;100.00
9059;BME280;4564;42.034;25.834;2023-06-04T11:30:11;100632.84;;;21.41;100.00
9059;BME280;4564;42.034;25.834;2023-06-04T11:32:39;100642.13;;;21.51;100.00
9059;BME280;4564;42.034;25.834;2023-06-04T11:35:05;100650.66;;;21.66;100.00
9059;BME280;4564;42.034;25.834;2023-06-04T11:37:33;100652.03;;;21.64;100.00
9059;BME280;4564;42.034;25.834;2023-06-04T11:40:00;100645.81;;;21.57;100.00
9059;BME280;4564;42.034;25.834;2023-06-04T11:42:27;100644.72;;;21.58;100.00
9059;BME280;4564;42.034;25.834;2023-06-04T11:44:55;100644.47;;;21.43;100.00
9059;BME280;4564;42.034;25.834;2023-06-04T11:47:22;100635.91;;;21.44;100.00
9059;BME280;4564;42.034;25.834;2023-06-04T11:49:52;100643.97;;;21.46;100.00
9059;BME280;4564;42.034;25.834;2023-06-04T11:52:20;100632.22;;;21.39;100.00
9059;BME280;4564;42.034;25.834;2023-06-04T11:54:48;100630.97;;;21.29;100.00
9059;BME280;4564;42.034;25.834;2023-06-04T11:57:15;100638.94;;;21.26;100.00
9059;BME280;4564;42.034;25.834;2023-06-04T11:59:41;100633.00;;;21.34;100.00
9059;BME280;4564;42.034;25.834;2023-06-04T12:02:08;100634.75;;;21.40;100.00
9059;BME280;4564;42.034;25.834;2023-06-04T12:04:35;100627.16;;;21.47;100.00
9059;BME280;4564;42.034;25.834;2023-06-04T12:07:01;100629.16;;;21.52;100.00
9059;BME280;4564;42.034;25.834;2023-06-04T12:09:30;100628.81;;;21.65;100.00
9059;BME280;4564;42.034;25.834;2023-06-04T12:11:59;100624.94;;;21.83;100.00
9059;BME280;4564;42.034;25.834;2023-06-04T12:14:26;100623.53;;;21.80;100.00
9059;BME280;4564;42.034;25.834;2023-06-04T12:16:56;100628.47;;;21.78;100.00
9059;BME280;4564;42.034;25.834;2023-06-04T12:19:23;100631.06;;;21.34;100.00
9059;BME280;4564;42.034;25.834;2023-06-04T12:22:00;100631.81;;;21.30;100.00
9059;BME280;4564;42.034;25.834;2023-06-04T12:24:28;100632.66;;;21.30;100.00
9059;BME280;4564;42.034;25.834;2023-06-04T12:27:02;100637.53;;;21.40;100.00
9059;BME280;4564;42.034;25.834;2023-06-04T12:29:29;100639.97;;;21.53;100.00
9059;BME280;4564;42.034;25.834;2023-06-04T12:32:03;100640.13;;;21.80;100.00
9059;BME280;4564;42.034;25.834;2023-06-04T12:34:30;100641.47;;;21.94;100.00
9059;BME280;4564;42.034;25.834;2023-06-04T12:36:57;100629.38;;;22.17;100.00
9059;BME280;4564;42.034;25.834;2023-06-04T12:39:23;100621.59;;;22.36;100.00
9059;BME280;4564;42.034;25.834;2023-06-04T12:41:50;100615.88;;;22.42;99.61
9059;BME280;4564;42.034;25.834;2023-06-04T12:44:18;100620.13;;;22.50;97.73
9059;BME280;4564;42.034;25.834;2023-06-04T12:46:44;100626.16;;;22.47;98.55
9059;BME280;4564;42.034;25.834;2023-06-04T12:49:11;100630.34;;;22.28;98.00
9059;BME280;4564;42.034;25.834;2023-06-04T12:51:38;100625.91;;;22.27;98.11
9059;BME280;4564;42.034;25.834;2023-06-04T12:54:04;100624.56;;;22.29;98.24